Latest Weather Observations for Cape Byron

IDN60801

Issued at 4:22 pm EST Sunday 15 September 2019 (issued every 10 minutes, with the page automatically refreshed every 10 minutes)

About weather observations | Map of weather stations | Latest weather observations for NSW | Other Formats
Station Details ID: 058216 Name: CAPE BYRON AWS Lat: -28.64 Lon: 153.64 Height: 95.0 m
Data from the previous 72 hours. | See also: Recent months at Cape Byron
Date/Time
EST
Temp
°C
App
Temp
°C
Dew
Point
°C
Rel
Hum
%
Delta-T
°C
Wind Press
QNH
hPa
Press
MSL
hPa
Rain since
9am
mm
Dir  Spd
km/h
Gust
km/h
Spd
kts
Gust
kts
15/04:00pm 19.4 15.1 12.2 63 4.0 NNE 26 35 14 19 1022.4 1022.2 0.0
15/03:30pm 19.6 15.7 12.1 62 4.2 NNE 24 33 13 18 1022.4 1022.2 0.0
15/03:00pm 19.8 16.7 12.1 61 4.3 NNE 20 28 11 15 1022.3 1022.1 0.0
15/02:30pm 20.3 16.0 12.0 59 4.6 NE 26 35 14 19 1022.4 1022.2 0.0
15/02:00pm 20.2 14.7 11.7 58 4.7 NE 32 39 17 21 1022.6 1022.4 0.0
15/01:30pm 21.1 16.5 12.3 57 5.0 NE 28 33 15 18 1023.1 1022.9 0.0
15/01:00pm 21.9 18.4 13.3 58 4.9 NE 24 30 13 16 1023.7 1023.5 0.0
15/12:30pm 22.6 19.4 13.1 55 5.5 NE 22 26 12 14 1024.2 1024.0 0.0
15/12:00pm 23.0 20.3 13.5 55 5.5 NE 20 24 11 13 1024.6 1024.4 0.0
15/11:30am 22.5 20.8 13.6 57 5.2 NE 15 20 8 11 1025.0 1024.8 0.0
15/11:00am 21.4 19.6 12.0 55 5.3 NNE 13 17 7 9 1025.2 1025.0 0.0
15/10:30am 21.1 19.5 11.7 55 5.3 NNE 11 15 6 8 1025.4 1025.2 0.0
15/10:00am 20.8 19.2 11.4 55 5.2 NE 11 17 6 9 1025.6 1025.4 0.0
15/09:30am 20.7 19.6 11.9 57 4.9 ENE 9 11 5 6 1025.9 1025.7 0.0
15/09:00am 19.0 18.1 11.3 61 4.2 E 7 11 4 6 1025.9 1025.7 0.0
15/08:30am 18.0 17.1 11.3 65 3.7 S 7 9 4 5 1025.8 1025.6 0.0
15/08:00am 17.5 15.8 11.3 67 3.4 SSE 11 13 6 7 1025.8 1025.6 0.0
15/07:30am 16.7 15.8 11.4 71 2.9 SSW 7 11 4 6 1025.7 1025.5 0.0
15/07:00am 16.1 14.7 10.8 71 2.8 SW 9 13 5 7 1025.4 1025.2 0.0
15/06:30am 15.6 13.8 10.8 73 2.6 SW 11 13 6 7 1024.9 1024.7 0.0
15/06:00am 15.4 14.0 10.8 74 2.4 SW 9 11 5 6 1024.3 1024.1 0.0
15/05:30am 15.6 14.3 11.2 75 2.4 WSW 9 13 5 7 1024.0 1023.8 0.0
15/05:00am 15.5 13.8 11.3 76 2.3 WSW 11 15 6 8 1024.0 1023.8 0.0
15/04:30am 15.6 14.0 11.4 76 2.3 WSW 11 13 6 7 1023.7 1023.5 0.0
15/04:00am 15.9 14.6 11.3 74 2.5 WSW 9 13 5 7 1023.4 1023.2 0.0
15/03:30am 16.0 15.1 11.4 74 2.5 W 7 9 4 5 1023.2 1023.0 0.0
15/03:00am 15.9 14.7 11.7 76 2.3 WSW 9 13 5 7 1023.4 1023.2 0.0
15/02:30am 15.6 14.1 11.8 78 2.1 WSW 11 15 6 8 1023.4 1023.2 0.0
15/02:00am 15.9 14.3 11.7 76 2.3 SW 11 15 6 8 1023.5 1023.3 0.0
15/01:30am 16.2 13.9 11.8 75 2.4 SW 15 19 8 10 1023.7 1023.5 0.0
15/01:00am 17.3 15.1 12.0 71 2.9 SSE 15 22 8 12 1023.9 1023.7 0.0
15/12:30am 17.5 15.1 12.6 73 2.7 SE 17 24 9 13 1024.1 1023.9 0.0
15/12:00am 17.4 14.6 12.5 73 2.7 SSE 19 24 10 13 1024.2 1024.0 0.0
 
Date/Time
EST
Temp
°C
App
Temp
°C
Dew
Point
°C
Rel
Hum
%
Delta-T
°C
Wind Press
QNH
hPa
Press
MSL
hPa
Rain since
9am
mm
Dir  Spd
km/h
Gust
km/h
Spd
kts
Gust
kts
14/11:30pm 17.6 14.5 12.3 71 2.9 SSE 20 28 11 15 1024.3 1024.1 0.0
14/11:00pm 17.5 14.7 12.6 73 2.7 SSE 19 26 10 14 1024.5 1024.3 0.0
14/10:30pm 17.7 14.4 12.8 73 2.7 SE 22 32 12 17 1024.3 1024.1 0.0
14/10:00pm 18.0 14.5 13.5 75 2.5 SSE 24 33 13 18 1024.4 1024.2 0.0
14/09:30pm 18.0 14.5 13.5 75 2.6 S 24 32 13 17 1024.7 1024.5 0.0
14/09:00pm 18.1 14.6 13.4 74 2.7 S 24 32 13 17 1024.6 1024.4 0.0
14/08:30pm 18.2 14.1 13.7 75 2.6 SSE 28 37 15 20 1024.4 1024.2 0.0
14/08:00pm 18.4 14.0 14.1 76 2.5 S 30 35 16 19 1024.1 1023.9 0.0
14/07:30pm 18.3 14.1 13.4 73 2.8 S 28 35 15 19 1023.9 1023.7 0.0
14/07:00pm 18.3 13.9 13.0 71 3.0 S 28 35 15 19 1023.5 1023.3 0.0
14/06:30pm 18.5 14.2 12.0 66 3.6 S 26 32 14 17 1023.0 1022.8 0.0
14/06:00pm 18.4 14.2 11.2 63 3.9 S 24 32 13 17 1022.6 1022.4 0.0
14/05:30pm 18.8 13.6 10.1 57 4.7 S 28 35 15 19 1022.1 1021.9 0.0
14/05:00pm 19.1 13.4 11.2 60 4.3 SSE 32 39 17 21 1021.2 1021.0 0.0
14/04:30pm 19.5 13.3 10.2 55 5.0 SSE 33 43 18 23 1020.7 1020.5 0.0
14/04:00pm 19.9 13.4 8.9 49 5.8 SSE 33 46 18 25 1020.3 1020.0 0.0
14/03:30pm 20.8 14.4 9.4 48 6.1 SE 33 43 18 23 1019.8 1019.5 0.0
14/03:00pm 21.4 17.6 12.3 56 5.1 SE 24 33 13 18 1019.7 1019.4 0.0
14/02:30pm 23.2 22.1 16.3 65 4.2 E 17 26 9 14 1019.4 1019.1 0.0
14/02:00pm 23.3 22.5 16.1 64 4.4 NE 15 19 8 10 1019.0 1018.7 0.0
14/01:30pm 22.7 20.6 13.7 56 5.3 NE 17 24 9 13 1018.9 1018.6 0.0
14/01:00pm 22.1 19.7 12.6 55 5.4 NE 17 28 9 15 1019.1 1018.8 0.0
14/12:30pm 22.2 19.4 13.3 57 5.1 NNE 20 28 11 15 1019.5 1019.2 0.0
14/12:00pm 22.8 20.8 12.7 53 5.8 NNE 15 22 8 12 1019.9 1019.6 0.0
14/11:30am 22.3 20.0 11.7 51 6.0 NNE 15 20 8 11 1020.4 1020.2 0.0
14/11:00am 22.4 20.3 9.6 44 6.9 NNE 11 17 6 9 1020.7 1020.5 0.0
14/10:30am 21.2 19.7 11.8 55 5.3 N 11 15 6 8 1021.2 1021.0 0.0
14/10:00am 20.0 18.2 11.0 56 4.9 N 11 15 6 8 1021.6 1021.4 0.0
14/09:30am 18.9 17.0 11.9 64 3.9 N 13 17 7 9 1021.8 1021.6 0.0
14/09:00am 18.5 17.3 12.9 70 3.1 N 11 15 6 8 1022.2 1022.0 0.0
14/08:30am 17.7 16.0 12.6 72 2.8 N 13 19 7 10 1022.4 1022.2 0.0
14/08:00am 16.9 15.8 11.8 72 2.8 N 9 15 5 8 1022.4 1022.2 0.0
14/07:30am 15.3 13.6 11.1 76 2.3 N 11 15 6 8 1022.3 1022.1 0.0
14/07:00am 13.7 12.7 12.3 91 0.8 NNW 9 11 5 6 1022.0 1021.8 0.0
14/06:30am 13.0 11.4 11.6 91 0.7 NNW 11 15 6 8 1021.7 1021.5 0.0
14/06:00am 13.6 12.0 12.7 94 0.5 WNW 13 17 7 9 1021.7 1021.5 0.0
14/05:30am 14.0 12.4 12.9 93 0.6 WNW 13 17 7 9 1021.4 1021.2 0.0
14/05:00am 14.6 12.4 13.3 92 0.7 W 17 20 9 11 1021.5 1021.3 0.0
14/04:30am 15.2 12.7 13.4 89 1.0 W 19 20 10 11 1021.6 1021.4 0.0
14/04:00am 15.3 12.8 13.5 89 1.0 WSW 19 20 10 11 1021.7 1021.5 0.0
14/03:30am 15.3 12.3 13.8 91 0.8 W 22 26 12 14 1021.5 1021.3 0.0
14/03:00am 15.3 12.7 13.8 91 0.8 W 20 26 11 14 1021.6 1021.4 0.0
14/02:30am 15.5 13.0 14.0 91 0.9 WSW 20 26 11 14 1021.7 1021.5 0.0
14/02:00am 15.5 12.6 13.9 90 0.9 W 22 28 12 15 1022.1 1021.9 0.0
14/01:30am 15.8 13.3 14.2 90 0.9 WSW 20 24 11 13 1022.4 1022.2 0.0
14/01:00am 15.8 13.5 14.2 90 0.9 WSW 19 24 10 13 1022.7 1022.5 0.0
14/12:30am 15.6 13.1 14.1 91 0.9 WSW 20 26 11 14 1023.0 1022.8 0.0
14/12:00am 15.8 13.9 14.3 91 0.9 WSW 17 20 9 11 1023.2 1023.0 0.0
 
Date/Time
EST
Temp
°C
App
Temp
°C
Dew
Point
°C
Rel
Hum
%
Delta-T
°C
Wind Press
QNH
hPa
Press
MSL
hPa
Rain since
9am
mm
Dir  Spd
km/h
Gust
km/h
Spd
kts
Gust
kts
13/11:30pm 15.7 14.6 14.2 91 0.9 SW 13 17 7 9 1023.5 1023.3 0.0
13/11:00pm 16.1 15.2 14.8 92 0.7 WSW 13 15 7 8 1023.6 1023.4 0.0
13/10:30pm 16.1 15.2 14.8 92 0.8 SW 13 17 7 9 1023.5 1023.3 0.0
13/10:00pm 16.2 14.8 14.6 90 0.9 SSW 15 20 8 11 1023.5 1023.3 0.0
13/09:30pm 16.4 15.0 14.6 89 1.0 SSW 15 19 8 10 1023.3 1023.1 0.0
13/09:00pm 16.4 14.9 14.2 87 1.3 SSW 15 19 8 10 1023.2 1023.0 0.0
13/08:30pm 17.4 16.6 15.2 87 1.3 S 13 19 7 10 1023.0 1022.8 0.0
13/08:00pm 17.9 15.7 14.4 80 2.0 SSE 19 22 10 12 1023.0 1022.8 0.0
13/07:30pm 18.1 16.3 14.4 79 2.1 SSE 17 22 9 12 1023.0 1022.8 0.0
13/07:00pm 18.2 16.3 15.1 82 1.8 SSE 19 24 10 13 1022.6 1022.4 0.0
13/06:30pm 18.4 16.3 15.1 81 1.9 SSE 20 28 11 15 1022.4 1022.2 0.0
13/06:00pm 18.5 15.6 15.2 81 1.9 S 24 32 13 17 1022.0 1021.8 0.0
13/05:30pm 18.6 14.5 14.9 79 2.2 S 30 37 16 20 1021.7 1021.5 0.0
13/05:00pm 19.1 14.9 15.8 81 2.0 S 32 41 17 22 1021.4 1021.2 0.0
13/04:30pm 19.5 14.4 14.7 74 2.8 S 35 44 19 24 1021.0 1020.8 0.0
13/04:00pm 19.8 15.5 15.9 78 2.3 S 33 39 18 21 1020.7 1020.5 0.0
13/03:30pm 19.9 14.5 14.9 73 2.9 S 37 43 20 23 1020.5 1020.3 0.0
13/03:00pm 20.0 14.7 14.1 69 3.4 S 35 43 19 23 1020.0 1019.7 0.0
13/02:30pm 20.3 14.8 13.5 65 3.9 S 35 41 19 22 1020.0 1019.7 0.0
13/02:00pm 20.5 14.4 11.7 57 4.9 S 35 43 19 23 1019.9 1019.6 0.0
13/01:30pm 20.8 12.8 10.6 52 5.6 S 43 50 23 27 1019.9 1019.6 0.0
13/01:00pm 21.3 12.1 7.9 42 7.0 SSW 46 54 25 29 1019.9 1019.6 0.0
13/12:30pm 22.4 12.0 4.0 30 9.0 SSW 48 57 26 31 1019.8 1019.5 0.0
13/12:00pm 22.8 13.6 5.3 32 8.8 SSW 43 50 23 27 1019.9 1019.6 0.0
13/11:30am 23.2 16.9 5.6 32 8.9 S 28 37 15 20 1020.0 1019.7 0.0
13/11:00am 24.5 16.9 0.8 21 11.1 SSW 30 39 16 21 1020.1 1019.8 0.0
13/10:30am 24.3 16.4 -1.5 18 11.5 SW 30 46 16 25 1020.1 1019.8 0.0
13/10:26am 24.3 16.9 -0.8 19 11.4 SW 28 46 15 25 1020.1 1019.8 0.0
13/10:00am 23.7 16.3 -0.6 20 11.0 SW 28 35 15 19 1020.2 1019.9 0.0
13/09:30am 23.0 16.5 0.2 22 10.4 WSW 24 35 13 19 1020.2 1019.9 0.0
13/09:00am 21.2 19.2 8.5 44 6.7 NW 9 17 5 9 1020.3 1020.0 0.0
13/08:30am 20.4 17.5 4.4 35 7.8 NW 9 13 5 7 1020.4 1020.2 0.0
13/08:00am 19.3 15.3 3.1 34 7.6 NW 13 19 7 10 1020.3 1020.0 0.0
13/07:30am 17.9 13.0 1.8 34 7.3 NW 17 22 9 12 1020.1 1019.8 0.0
13/07:00am 16.6 11.4 2.6 39 6.4 WNW 19 20 10 11 1019.9 1019.6 0.0
13/06:30am 17.3 11.4 1.7 35 7.0 W 22 26 12 14 1019.8 1019.5 0.0
13/06:00am 16.8 11.4 2.4 38 6.5 WNW 20 24 11 13 1019.5 1019.2 0.0
13/05:30am 17.0 11.2 2.2 37 6.7 WNW 22 26 12 14 1019.5 1019.2 0.0
13/05:00am 16.4 11.3 4.1 44 5.8 WNW 20 24 11 13 1019.4 1019.1 0.0
13/04:30am 17.4 11.3 3.0 38 6.6 WNW 24 28 13 15 1019.5 1019.2 0.0
13/04:00am 17.6 10.9 3.5 39 6.6 WNW 28 28 15 15 1019.2 1018.9 0.0
13/03:30am 14.2 10.3 8.6 69 2.8 NW 19 22 10 12 1019.2 1018.9 0.0
13/03:00am 14.8 12.2 11.9 83 1.6 NW 17 19 9 10 1019.5 1019.2 0.0
13/02:30am 15.3 12.7 11.9 80 1.9 NNW 17 20 9 11 1019.8 1019.5 0.0
13/02:00am 15.9 13.0 10.9 72 2.7 NNW 17 22 9 12 1020.2 1019.9 0.0
13/01:30am 16.2 13.0 11.2 72 2.7 NNW 19 24 10 13 1020.6 1020.4 0.0
13/01:00am 16.1 13.0 11.7 75 2.4 NNW 19 26 10 14 1021.0 1020.8 0.0
13/12:30am 16.4 13.0 11.3 72 2.8 N 20 30 11 16 1021.2 1021.0 0.0
13/12:00am 16.2 13.0 12.0 76 2.3 N 20 26 11 14 1021.5 1021.3 0.0
 
Date/Time
EST
Temp
°C
App
Temp
°C
Dew
Point
°C
Rel
Hum
%
Delta-T
°C
Wind Press
QNH
hPa
Press
MSL
hPa
Rain since
9am
mm
Dir  Spd
km/h
Gust
km/h
Spd
kts
Gust
kts
12/11:30pm 16.0 12.3 11.4 74 2.5 N 22 30 12 16 1021.7 1021.5 0.0
12/11:00pm 15.9 12.7 11.9 77 2.2 N 20 28 11 15 1021.9 1021.7 0.0
12/10:30pm 16.1 13.1 12.5 79 2.0 N 20 30 11 16 1022.1 1021.9 0.0
12/10:00pm 16.2 13.2 12.4 78 2.1 N 20 30 11 16 1022.3 1022.1 0.0
12/09:30pm 16.6 12.9 12.8 78 2.1 N 24 35 13 19 1022.4 1022.2 0.0
12/09:00pm 16.9 13.7 13.0 78 2.2 N 22 32 12 17 1022.7 1022.5 0.0
12/08:30pm 17.1 13.0 12.8 76 2.4 N 26 41 14 22 1022.7 1022.5 0.0
12/08:00pm 17.2 13.9 12.9 76 2.4 N 22 35 12 19 1022.9 1022.7 0.0
12/07:30pm 17.2 12.7 12.5 74 2.6 N 28 37 15 20 1023.0 1022.8 0.0
12/07:00pm 17.4 12.5 12.7 74 2.6 N 30 39 16 21 1023.0 1022.8 0.0
12/06:30pm 17.3 12.7 12.2 72 2.8 N 28 43 15 23 1022.8 1022.6 0.0
12/06:00pm 17.2 12.8 11.7 70 3.0 NNE 26 39 14 21 1022.5 1022.3 0.0
12/05:30pm 17.3 12.9 11.6 69 3.1 NNE 26 39 14 21 1022.5 1022.3 0.0
12/05:00pm 17.5 13.0 11.3 67 3.4 NNE 26 37 14 20 1022.4 1022.2 0.0
12/04:30pm 17.7 13.4 10.8 64 3.7 NNE 24 35 13 19 1022.4 1022.2 0.0

Other formats

Comma delimited format used in spreadsheet applications
http://www.bom.gov.au/fwo/IDN60801/IDN60801.94599.axf

JavaScript Object Notation format (JSON) in row-major order
http://www.bom.gov.au/fwo/IDN60801/IDN60801.94599.json

Data quality

Most of these data are generated automatically and are frequently updated. Quality checks on data are not normally performed. It is possible for incorrect values to appear. Refer to information at About Latest Weather Observations and please check the disclaimer before using these data.